Time;durP1;ratioP1;P1;durP2;ratioP2;P2;SDS_P1;SDS_P2;PMS_P1;PMS_P2;Temp;Humidity;BMP_temperature;BMP_pressure;BME280_temperature;BME280_humidity;BME280_pressure;Samples;Min_cycle;Max_cycle;Signal;HPM_P1;HPM_P2
2021/01/31 07:27:25;;;;;;;17.97;7.70;;;;;;;-4.57;100.00;100016.94;5089706;27;21086;-78
2021/01/31 07:30:06;;;;;;;23.73;9.00;;;;;;;-3.60;100.00;100021.19;5085765;28;20063;-79
2021/01/31 07:32:48;;;;;;;25.03;8.67;;;;;;;-3.08;100.00;100030.94;5087554;28;20060;-78
2021/01/31 07:35:14;;;;;;;;;;;;;;;-2.83;100.00;100025.38;5071298;28;20512;-79
2021/01/31 07:37:42;;;;;;;21.63;7.83;;;;;;;-2.40;100.00;100026.16;5079210;28;19909;-78
2021/01/31 07:40:19;;;;;;;21.03;8.73;;;;;;;-2.29;100.00;100040.75;5079254;28;20397;-79
2021/01/31 07:42:46;;;;;;;24.13;8.93;;;;;;;-2.07;100.00;100046.25;5060243;28;20043;-79
2021/01/31 07:45:20;;;;;;;21.20;8.90;;;;;;;-2.14;100.00;100045.81;5065636;28;20408;-79
2021/01/31 07:47:49;;;;;;;22.17;8.63;;;;;;;-2.16;100.00;100048.72;5088314;28;20032;-78
2021/01/31 07:50:35;;;;;;;21.30;8.50;;;;;;;-2.04;100.00;100050.94;5071596;28;20434;-79
2021/01/31 07:53:02;;;;;;;18.10;7.47;;;;;;;-1.95;99.72;100063.19;5087276;22;20009;-82
2021/01/31 07:55:37;;;;;;;21.47;8.07;;;;;;;-1.71;98.42;100049.09;5113010;28;20065;-82
2021/01/31 07:58:21;;;;;;;20.23;8.23;;;;;;;-1.87;98.02;100048.56;5118367;28;20054;-82
2021/01/31 08:00:50;;;;;;;17.13;7.83;;;;;;;-1.85;97.25;100041.13;5104937;28;20031;-82
2021/01/31 08:03:32;;;;;;;17.03;7.63;;;;;;;-1.98;97.54;100036.59;5109690;28;20031;-82
2021/01/31 08:06:04;;;;;;;18.13;7.87;;;;;;;-1.82;97.59;100041.34;5105521;28;20034;-82
2021/01/31 08:08:44;;;;;;;16.70;7.33;;;;;;;-1.72;96.58;100040.41;5129790;28;20071;-82
2021/01/31 08:11:17;;;;;;;16.93;7.50;;;;;;;-1.83;96.50;100034.53;5122155;28;20027;-82
2021/01/31 08:13:50;;;;;;;15.73;6.83;;;;;;;-1.76;97.31;100034.13;5121943;28;20020;-82
2021/01/31 08:16:38;;;;;;;16.87;7.37;;;;;;;-1.55;97.43;100035.38;5113259;28;20066;-82
2021/01/31 08:19:26;;;;;;;17.13;7.90;;;;;;;-1.35;95.77;100037.66;5105828;28;20368;-83
2021/01/31 08:21:51;;;;;;;14.37;7.10;;;;;;;-1.66;96.33;100035.81;5124220;28;20413;-83
2021/01/31 08:24:54;;;;;;;15.80;7.73;;;;;;;-1.59;96.64;100041.53;5131071;27;20039;-82
2021/01/31 08:27:43;;;;;;;18.17;7.47;;;;;;;-1.42;96.41;100039.13;5127655;27;20031;-83
2021/01/31 08:30:14;;;;;;;18.33;7.87;;;;;;;-1.38;96.43;100048.81;5121913;28;20089;-82
2021/01/31 08:32:59;;;;;;;16.07;7.50;;;;;;;-1.28;96.66;100047.84;5128052;27;20037;-83
2021/01/31 08:35:30;;;;;;;20.08;8.48;;;;;;;-1.24;95.58;100041.66;5120923;27;20031;-82
2021/01/31 08:38:32;;;;;;;15.63;7.22;;;;;;;-1.27;96.44;100052.03;5115371;28;20038;-83
2021/01/31 08:43:48;;;;;;;18.47;7.67;;;;;;;-1.23;95.50;100043.25;5113875;28;20128;-82
2021/01/31 08:46:21;;;;;;;17.87;8.20;;;;;;;-1.06;96.09;100037.38;5097880;28;20032;-83
2021/01/31 08:49:01;;;;;;;16.47;7.70;;;;;;;-0.98;95.65;100039.34;5102209;28;20046;-83
2021/01/31 08:51:29;;;;;;;17.25;8.10;;;;;;;-0.97;95.41;100046.97;5103074;28;20049;-82
2021/01/31 08:54:06;;;;;;;20.02;8.23;;;;;;;-1.14;96.20;100053.91;5102044;28;20027;-82
2021/01/31 08:56:41;;;;;;;18.53;8.27;;;;;;;-0.87;96.12;100056.56;5112163;28;20028;-82
2021/01/31 08:59:11;;;;;;;19.08;8.48;;;;;;;-0.98;96.10;100055.19;5105221;28;20019;-83
2021/01/31 09:01:42;;;;;;;18.83;8.52;;;;;;;-0.90;96.32;100057.16;5096638;28;20102;-83
2021/01/31 09:04:11;;;;;;;19.75;8.90;;;;;;;-0.73;95.31;100051.28;5112354;28;20028;-84
2021/01/31 09:06:39;;;;;;;18.35;8.88;;;;;;;-0.71;94.83;100057.06;5107003;28;20043;-83
2021/01/31 09:09:05;;;;;;;18.50;8.95;;;;;;;-0.60;94.47;100061.84;5106673;28;20036;-83
2021/01/31 09:11:32;;;;;;;21.63;9.30;;;;;;;-0.58;94.63;100054.41;5105397;28;20046;-82
2021/01/31 09:14:23;;;;;;;19.08;8.65;;;;;;;-0.44;95.67;100054.38;5106816;28;20036;-82
2021/01/31 09:16:48;;;;;;;23.08;9.95;;;;;;;-0.16;94.60;100040.03;5099081;28;20062;-83
2021/01/31 09:19:25;;;;;;;18.98;8.80;;;;;;;-0.17;94.55;100044.53;5110814;28;20035;-83
2021/01/31 09:21:59;;;;;;;19.75;9.10;;;;;;;-0.11;94.48;100037.25;5115268;28;20024;-83
2021/01/31 09:24:31;;;;;;;17.77;8.65;;;;;;;0.06;94.16;100041.91;5098817;28;20032;-83
2021/01/31 09:26:56;;;;;;;22.83;9.52;;;;;;;0.05;94.01;100051.72;5094518;28;20065;-83
2021/01/31 09:29:28;;;;;;;21.02;9.38;;;;;;;-0.01;93.34;100048.41;5102486;28;20743;-84
2021/01/31 09:32:21;;;;;;;20.23;9.57;;;;;;;0.12;92.92;100046.00;5116616;28;20423;-83
2021/01/31 09:34:52;;;;;;;24.50;9.63;;;;;;;0.18;92.97;100055.38;5115164;28;20031;-84
2021/01/31 09:37:25;;;;;;;23.83;10.07;;;;;;;0.22;93.14;100046.53;5094913;28;20044;-83
2021/01/31 09:40:00;;;;;;;21.17;9.27;;;;;;;0.25;92.89;100053.09;5113057;28;20027;-82
2021/01/31 09:42:34;;;;;;;20.17;9.30;;;;;;;0.18;93.30;100045.56;5111335;28;20035;-82
2021/01/31 09:45:03;;;;;;;18.63;9.57;;;;;;;0.34;92.28;100044.13;5093029;28;20069;-83
2021/01/31 09:47:28;;;;;;;23.35;10.00;;;;;;;0.35;92.34;100039.63;5100816;28;20039;-83
2021/01/31 09:50:05;;;;;;;22.70;10.07;;;;;;;0.45;91.99;100047.31;5112168;28;20024;-83
2021/01/31 09:52:31;;;;;;;22.55;9.98;;;;;;;0.28;93.29;100044.56;5111456;28;20122;-83
2021/01/31 09:55:23;;;;;;;23.85;10.77;;;;;;;0.38;93.29;100039.81;5106581;28;20478;-83
2021/01/31 09:57:48;;;;;;;21.98;9.90;;;;;;;0.37;93.48;100040.88;5109030;28;20039;-83
2021/01/31 10:00:14;;;;;;;24.60;10.43;;;;;;;0.27;93.85;100043.00;5096148;28;20107;-83
2021/01/31 10:02:40;;;;;;;21.20;9.60;;;;;;;0.39;94.17;100040.56;5093365;28;20027;-83
2021/01/31 10:05:10;;;;;;;25.27;10.63;;;;;;;0.54;93.82;100048.16;5109977;28;20023;-84
2021/01/31 10:07:44;;;;;;;20.23;9.23;;;;;;;0.56;93.68;100053.94;5092064;28;20063;-83
2021/01/31 10:10:32;;;;;;;25.70;10.75;;;;;;;0.39;93.96;100038.72;5101080;28;20032;-82
2021/01/31 10:13:19;;;;;;;21.65;10.07;;;;;;;0.47;94.43;100045.94;5113334;28;20046;-83
2021/01/31 10:15:52;;;;;;;22.92;10.13;;;;;;;0.73;93.61;100048.72;5110520;28;20043;-83
2021/01/31 10:18:27;;;;;;;25.00;11.07;;;;;;;0.84;93.85;100052.66;5111493;28;20177;-85
2021/01/31 10:21:31;;;;;;;25.95;10.65;;;;;;;0.87;94.00;100039.59;5105839;28;20024;-83
2021/01/31 10:24:16;;;;;;;24.25;10.38;;;;;;;0.87;93.79;100050.19;5086408;28;20492;-84
2021/01/31 10:26:42;;;;;;;25.45;11.32;;;;;;;1.01;93.58;100050.09;5089625;28;20031;-84
2021/01/31 10:29:08;;;;;;;22.83;10.77;;;;;;;0.96;94.46;100050.22;5103997;28;20039;-84
2021/01/31 10:31:37;;;;;;;22.70;10.98;;;;;;;1.03;94.96;100053.22;5079246;28;20034;-84
2021/01/31 10:34:05;;;;;;;22.40;10.80;;;;;;;1.14;93.97;100065.13;5104626;28;20032;-84
2021/01/31 10:36:32;;;;;;;22.08;11.18;;;;;;;1.31;90.92;100059.09;5103777;28;20027;-84
2021/01/31 10:39:04;;;;;;;24.77;11.30;;;;;;;1.34;92.64;100058.44;5103859;28;20042;-84
2021/01/31 10:41:30;;;;;;;26.58;11.95;;;;;;;1.29;92.44;100062.06;5085526;28;20039;-84
2021/01/31 10:43:59;;;;;;;22.27;11.32;;;;;;;1.39;91.75;100061.78;5095858;28;20488;-84
2021/01/31 10:46:25;;;;;;;25.67;11.52;;;;;;;1.34;91.63;100055.81;5103161;28;20023;-84
2021/01/31 10:48:51;;;;;;;28.67;11.93;;;;;;;1.41;92.57;100053.50;5082232;28;20560;-84
2021/01/31 10:51:17;;;;;;;24.65;12.15;;;;;;;1.39;92.21;100047.72;5101465;28;20043;-85
2021/01/31 10:53:42;;;;;;;25.70;12.10;;;;;;;1.46;92.39;100042.72;5105583;28;20031;-85
2021/01/31 10:56:08;;;;;;;26.55;12.23;;;;;;;1.65;92.32;100051.97;5093025;28;20027;-85
2021/01/31 10:58:34;;;;;;;25.88;12.23;;;;;;;1.82;91.90;100046.69;5089774;28;20059;-84
2021/01/31 11:01:00;;;;;;;25.95;12.98;;;;;;;2.10;90.82;100041.06;5117403;27;20035;-85
2021/01/31 11:03:27;;;;;;;26.58;11.88;;;;;;;2.36;89.45;100034.63;5082665;28;20046;-84
2021/01/31 11:05:53;;;;;;;29.02;12.57;;;;;;;2.59;88.89;100028.00;5081594;28;20104;-85
2021/01/31 11:08:21;;;;;;;26.75;12.20;;;;;;;2.67;88.33;100032.53;5097143;28;20031;-83
2021/01/31 11:10:48;;;;;;;24.60;11.32;;;;;;;2.83;87.33;100026.72;5100329;28;20134;-84
2021/01/31 11:13:16;;;;;;;26.35;12.73;;;;;;;2.56;86.37;100031.31;5101426;28;20427;-84
2021/01/31 11:15:41;;;;;;;25.35;12.32;;;;;;;2.76;86.99;100024.53;5101560;28;20032;-82
2021/01/31 11:18:08;;;;;;;25.25;12.20;;;;;;;2.60;86.93;100023.47;5098172;28;20040;-84
2021/01/31 11:20:34;;;;;;;23.60;12.07;;;;;;;2.67;86.20;100023.78;5106271;28;20530;-85
2021/01/31 11:22:59;;;;;;;24.52;11.63;;;;;;;2.80;85.90;100017.50;5104806;28;20066;-84
2021/01/31 11:25:25;;;;;;;27.83;12.77;;;;;;;2.79;85.19;100015.16;5087405;28;20100;-85
2021/01/31 11:27:50;;;;;;;24.83;11.98;;;;;;;2.93;84.99;100018.34;5090743;28;20025;-84
2021/01/31 11:30:16;;;;;;;25.50;12.43;;;;;;;2.92;85.18;100012.28;5102910;28;20024;-84
2021/01/31 11:32:42;;;;;;;27.67;11.82;;;;;;;3.02;84.71;100011.91;5101442;28;20760;-84
2021/01/31 11:35:07;;;;;;;24.80;12.80;;;;;;;3.02;83.81;100011.91;5098050;28;20582;-84
2021/01/31 11:37:33;;;;;;;27.58;12.27;;;;;;;2.89;83.93;99999.63;5110958;28;20055;-84
2021/01/31 11:39:58;;;;;;;23.30;12.05;;;;;;;2.95;84.60;100003.66;5102026;28;20486;-83
2021/01/31 11:42:24;;;;;;;27.58;12.20;;;;;;;3.04;83.46;100004.38;5094468;28;20404;-83
2021/01/31 11:44:49;;;;;;;24.08;11.90;;;;;;;3.22;83.50;100008.53;5089423;28;20470;-84
2021/01/31 11:47:15;;;;;;;23.27;12.23;;;;;;;3.11;83.88;100004.69;5110726;28;20034;-84
2021/01/31 11:49:40;;;;;;;25.50;12.40;;;;;;;3.14;83.88;100006.69;5107303;28;20040;-82
2021/01/31 11:52:06;;;;;;;25.08;12.05;;;;;;;3.08;83.90;100009.88;5106598;28;20102;-84
2021/01/31 11:54:31;;;;;;;24.63;12.07;;;;;;;3.22;83.62;100003.22;5080137;28;20024;-83
2021/01/31 11:56:57;;;;;;;23.58;11.77;;;;;;;3.15;82.88;100000.28;5103065;28;20072;-84
2021/01/31 11:59:22;;;;;;;26.35;11.75;;;;;;;3.03;83.16;99988.75;5105562;28;20035;-83
2021/01/31 12:01:48;;;;;;;29.58;12.38;;;;;;;2.91;83.66;99986.78;5094834;28;20168;-84
2021/01/31 12:04:13;;;;;;;26.75;13.23;;;;;;;2.94;84.46;99980.84;5113584;28;20172;-84
2021/01/31 12:06:39;;;;;;;22.92;11.43;;;;;;;2.87;85.22;99987.72;5105491;28;20031;-84
2021/01/31 12:09:04;;;;;;;23.13;11.23;;;;;;;2.87;85.50;99980.53;5104027;28;20033;-83
2021/01/31 12:11:30;;;;;;;21.98;10.88;;;;;;;2.99;84.85;99982.53;5107095;28;20118;-84
2021/01/31 12:13:57;;;;;;;24.30;12.13;;;;;;;3.03;83.58;99983.44;5114389;28;20463;-84
2021/01/31 12:16:23;;;;;;;26.08;12.18;;;;;;;3.21;83.74;99974.28;5110101;28;20032;-84
2021/01/31 12:18:49;;;;;;;28.02;12.40;;;;;;;3.18;83.80;99975.69;5109155;27;20026;-84
2021/01/31 12:21:14;;;;;;;25.25;12.45;;;;;;;3.16;83.87;99969.91;5111376;28;20036;-83
2021/01/31 12:23:40;;;;;;;24.50;11.32;;;;;;;3.13;82.88;99967.91;5130405;27;20110;-84
2021/01/31 12:26:06;;;;;;;23.20;11.48;;;;;;;3.29;82.81;99976.09;5105035;28;20035;-84
2021/01/31 12:28:31;;;;;;;22.92;10.85;;;;;;;3.39;82.98;99971.16;5115395;28;20439;-84
2021/01/31 12:30:56;;;;;;;24.50;10.95;;;;;;;3.39;83.11;99965.06;5093568;28;20126;-83
2021/01/31 12:33:22;;;;;;;22.85;11.13;;;;;;;3.62;82.23;99959.09;5108132;28;20038;-84
2021/01/31 12:35:47;;;;;;;24.98;10.90;;;;;;;3.60;81.70;99947.25;5083111;28;20032;-84
2021/01/31 12:38:13;;;;;;;20.55;9.80;;;;;;;3.42;79.75;99957.25;5114642;28;20035;-84
2021/01/31 12:40:38;;;;;;;18.67;9.60;;;;;;;3.43;82.09;99948.13;5099200;28;20042;-84
2021/01/31 12:43:04;;;;;;;19.17;10.10;;;;;;;3.53;81.35;99960.28;5108049;28;20038;-84
2021/01/31 12:45:30;;;;;;;18.70;9.25;;;;;;;3.31;81.51;99948.06;5087923;28;20502;-83
2021/01/31 12:47:55;;;;;;;23.23;10.35;;;;;;;3.52;80.87;99953.41;5108564;27;20084;-82
2021/01/31 12:50:24;;;;;;;18.75;9.45;;;;;;;3.60;79.46;99948.00;5111963;28;20044;-81
2021/01/31 12:52:49;;;;;;;21.73;9.88;;;;;;;3.53;79.46;99945.09;5112013;28;20035;-85
2021/01/31 12:55:15;;;;;;;20.13;9.90;;;;;;;3.72;78.44;99941.19;5088606;28;20039;-81
2021/01/31 12:57:41;;;;;;;19.27;9.73;;;;;;;3.65;79.64;99937.19;5102546;28;20031;-82
2021/01/31 13:00:11;;;;;;;18.50;9.63;;;;;;;3.64;79.57;99932.94;5101229;28;20039;-83
2021/01/31 13:02:38;;;;;;;21.05;9.95;;;;;;;3.76;79.18;99929.53;5096768;28;21303;-82
2021/01/31 13:05:08;;;;;;;20.25;9.57;;;;;;;3.76;79.79;99932.22;5093931;28;20028;-82
2021/01/31 13:07:35;;;;;;;20.17;10.05;;;;;;;3.70;80.19;99924.78;5109002;28;20032;-83
2021/01/31 13:10:01;;;;;;;22.02;10.07;;;;;;;3.67;79.41;99920.88;5103376;28;20038;-81
2021/01/31 13:12:26;;;;;;;21.17;9.95;;;;;;;3.67;78.05;99919.00;5106770;28;20095;-82
2021/01/31 13:14:52;;;;;;;17.50;9.40;;;;;;;3.72;78.63;99918.00;5104760;28;20071;-83
2021/01/31 13:17:17;;;;;;;19.75;10.23;;;;;;;3.71;78.11;99913.00;5105736;28;20043;-84
2021/01/31 13:19:43;;;;;;;19.00;9.50;;;;;;;3.48;78.99;99910.69;5105151;28;20467;-84
2021/01/31 13:22:09;;;;;;;21.30;10.23;;;;;;;3.73;78.62;99908.91;5085326;28;20040;-84
2021/01/31 13:24:34;;;;;;;20.50;9.57;;;;;;;3.72;77.91;99909.25;5097838;28;20054;-83
2021/01/31 13:27:00;;;;;;;18.48;9.55;;;;;;;3.77;77.89;99907.16;5083945;28;20027;-84
2021/01/31 13:29:26;;;;;;;21.70;10.00;;;;;;;3.50;77.79;99903.16;5101520;28;20024;-84
2021/01/31 13:31:52;;;;;;;17.70;9.15;;;;;;;3.59;78.00;99895.09;5087223;28;20406;-83
2021/01/31 13:34:18;;;;;;;19.73;9.48;;;;;;;3.67;77.35;99897.69;5084701;28;20020;-82
2021/01/31 13:36:43;;;;;;;19.95;9.52;;;;;;;3.83;77.68;99894.41;5108681;28;20027;-83
2021/01/31 13:39:10;;;;;;;16.67;9.18;;;;;;;3.63;78.36;99896.78;5107478;28;20032;-83
2021/01/31 13:41:35;;;;;;;16.45;8.77;;;;;;;3.71;77.65;99891.72;5090048;28;20507;-83
2021/01/31 13:44:02;;;;;;;16.40;8.50;;;;;;;3.59;77.94;99893.22;5109832;28;20023;-83
2021/01/31 13:46:27;;;;;;;16.92;8.73;;;;;;;3.61;78.16;99891.03;5107455;28;20031;-83
2021/01/31 13:48:55;;;;;;;18.73;8.98;;;;;;;3.49;78.65;99890.97;5112243;28;20471;-82
2021/01/31 13:51:20;;;;;;;18.58;9.07;;;;;;;3.54;79.12;99888.09;5121394;28;20035;-81
2021/01/31 13:53:46;;;;;;;18.10;9.32;;;;;;;3.48;79.71;99878.75;5121479;22;20044;-75
2021/01/31 13:56:12;;;;;;;21.35;9.30;;;;;;;3.54;79.33;99888.09;5070052;28;20096;-78
2021/01/31 13:58:39;;;;;;;23.50;11.10;;;;;;;3.70;78.88;99882.19;5063464;28;20025;-78
2021/01/31 14:01:05;;;;;;;20.27;10.35;;;;;;;3.62;79.18;99873.94;5064964;28;20080;-78
2021/01/31 14:03:31;;;;;;;19.40;9.68;;;;;;;3.59;78.99;99871.94;5063841;28;20739;-78
2021/01/31 14:05:57;;;;;;;16.30;8.50;;;;;;;3.51;78.99;99864.03;5071510;28;20035;-78
2021/01/31 14:08:23;;;;;;;20.80;9.00;;;;;;;3.47;79.74;99863.13;5067825;28;20037;-78
2021/01/31 14:10:48;;;;;;;18.88;9.55;;;;;;;3.40;79.23;99861.00;5046104;28;20089;-77
2021/01/31 14:13:14;;;;;;;18.00;9.27;;;;;;;3.40;79.08;99866.31;5051707;28;20040;-79
2021/01/31 14:15:39;;;;;;;16.83;9.20;;;;;;;3.38;79.57;99863.22;5030691;28;20032;-78
2021/01/31 14:18:07;;;;;;;17.83;9.43;;;;;;;3.49;80.27;99864.34;5055624;28;20044;-78
2021/01/31 14:20:33;;;;;;;17.42;9.40;;;;;;;3.52;80.38;99870.91;5052869;28;20057;-77
2021/01/31 14:22:59;;;;;;;18.95;10.50;;;;;;;3.21;79.22;99867.88;5073166;28;20033;-76
2021/01/31 14:25:26;;;;;;;20.00;9.75;;;;;;;3.25;80.74;99864.22;5062782;28;20636;-77
2021/01/31 14:27:53;;;;;;;17.77;9.25;;;;;;;3.43;80.46;99863.00;5074692;28;20037;-78
2021/01/31 14:30:20;;;;;;;21.15;10.77;;;;;;;3.50;80.12;99859.81;5072467;28;20085;-79
2021/01/31 14:32:46;;;;;;;19.75;10.30;;;;;;;3.61;79.05;99853.75;5069545;28;20028;-78
2021/01/31 14:35:17;;;;;;;20.90;10.20;;;;;;;3.81;78.37;99848.72;5073964;28;20399;-79
2021/01/31 14:37:43;;;;;;;20.33;9.75;;;;;;;3.64;78.86;99839.78;5049648;28;20119;-77
2021/01/31 14:40:12;;;;;;;21.15;11.05;;;;;;;3.76;77.94;99838.25;5037427;28;20063;-78
2021/01/31 14:42:37;;;;;;;20.67;10.35;;;;;;;3.44;78.82;99835.28;5068257;28;20037;-76
2021/01/31 14:45:05;;;;;;;20.73;10.57;;;;;;;3.43;79.22;99836.38;5074459;28;20037;-78
2021/01/31 14:47:31;;;;;;;20.08;10.75;;;;;;;3.36;80.33;99828.16;5071844;28;20033;-78
2021/01/31 14:49:56;;;;;;;22.05;11.50;;;;;;;3.40;80.77;99829.06;5069056;28;20051;-78
2021/01/31 14:52:22;;;;;;;21.88;11.23;;;;;;;3.41;80.51;99829.84;5057029;28;20036;-78
2021/01/31 14:54:48;;;;;;;20.55;10.43;;;;;;;3.49;79.69;99827.09;5054467;28;20468;-79
2021/01/31 14:57:13;;;;;;;22.40;11.20;;;;;;;3.39;79.54;99811.53;5050957;28;20032;-78
2021/01/31 14:59:39;;;;;;;19.65;10.95;;;;;;;3.26;80.64;99814.47;5069172;28;20051;-79
2021/01/31 15:02:07;;;;;;;22.42;11.48;;;;;;;3.13;81.67;99807.56;5057041;28;20034;-79
2021/01/31 15:04:37;;;;;;;19.92;10.75;;;;;;;3.14;82.00;99803.78;5053719;28;20032;-77
2021/01/31 15:07:05;;;;;;;24.05;12.63;;;;;;;3.04;82.34;99804.22;5055670;28;20024;-78
2021/01/31 15:09:32;;;;;;;22.40;12.38;;;;;;;3.05;82.58;99819.81;5071698;28;20039;-77
2021/01/31 15:11:59;;;;;;;25.80;12.40;;;;;;;2.96;83.23;99810.38;5056927;28;20032;-77
2021/01/31 15:14:25;;;;;;;25.33;13.55;;;;;;;3.01;82.35;99815.47;5070954;28;20032;-80
2021/01/31 15:16:50;;;;;;;24.95;12.48;;;;;;;3.19;81.66;99817.69;5074668;28;20044;-79
2021/01/31 15:19:16;;;;;;;24.52;12.68;;;;;;;3.20;81.79;99811.25;5054542;28;20374;-79
2021/01/31 15:21:41;;;;;;;26.42;12.63;;;;;;;3.11;82.06;99815.88;5065352;28;20112;-78
2021/01/31 15:24:07;;;;;;;24.17;12.52;;;;;;;2.93;83.03;99803.81;5067672;28;20040;-78
2021/01/31 15:26:33;;;;;;;25.50;12.63;;;;;;;2.73;83.44;99799.25;5066899;28;20032;-76
2021/01/31 15:28:58;;;;;;;26.25;12.60;;;;;;;2.74;83.75;99803.47;5036683;28;20048;-79
2021/01/31 15:31:24;;;;;;;30.58;14.15;;;;;;;2.77;83.77;99794.84;5051582;28;20354;-78
2021/01/31 15:33:49;;;;;;;32.08;13.88;;;;;;;2.67;83.93;99803.97;5048728;28;20090;-77
2021/01/31 15:36:16;;;;;;;29.65;13.43;;;;;;;2.69;83.74;99803.69;5071898;28;20127;-79
2021/01/31 15:38:42;;;;;;;30.70;13.88;;;;;;;2.79;83.49;99797.22;5051054;28;20029;-79
2021/01/31 15:41:08;;;;;;;33.35;13.15;;;;;;;2.62;83.08;99793.56;5063428;28;20032;-79
2021/01/31 15:43:34;;;;;;;24.98;12.35;;;;;;;2.67;82.70;99796.00;5062220;28;20062;-79
2021/01/31 15:46:00;;;;;;;25.77;12.55;;;;;;;2.72;83.43;99793.19;5067474;28;20024;-78
2021/01/31 15:48:26;;;;;;;30.23;13.90;;;;;;;2.26;84.02;99787.22;5039187;28;20044;-80
2021/01/31 15:50:52;;;;;;;26.30;12.65;;;;;;;2.45;84.88;99787.56;5046292;28;20043;-80
2021/01/31 15:53:18;;;;;;;29.38;14.07;;;;;;;2.54;84.95;99790.94;5060995;28;20032;-80
2021/01/31 15:55:43;;;;;;;30.42;14.52;;;;;;;2.47;84.43;99788.03;5065223;28;20020;-80
2021/01/31 15:58:09;;;;;;;32.20;14.65;;;;;;;2.65;84.34;99786.84;5063540;28;20032;-79
2021/01/31 16:00:35;;;;;;;32.17;15.10;;;;;;;2.39;84.04;99786.19;5065295;28;20060;-79
2021/01/31 16:03:03;;;;;;;27.35;13.32;;;;;;;2.38;84.22;99780.09;5051933;28;20098;-79
2021/01/31 16:05:29;;;;;;;27.60;12.95;;;;;;;2.04;84.32;99787.47;5065838;28;20033;-79
2021/01/31 16:07:55;;;;;;;28.33;12.70;;;;;;;1.85;87.03;99777.25;5031946;28;20040;-79
2021/01/31 16:10:23;;;;;;;27.77;13.73;;;;;;;1.43;87.93;99778.94;5047031;28;20028;-78
2021/01/31 16:12:49;;;;;;;27.33;12.23;;;;;;;1.71;88.60;99766.06;5039523;28;20033;-79
2021/01/31 16:15:19;;;;;;;27.55;12.25;;;;;;;1.79;87.82;99776.66;5071692;28;20678;-78
2021/01/31 16:17:44;;;;;;;26.05;12.43;;;;;;;1.73;88.03;99777.94;5052425;28;20443;-78
2021/01/31 16:20:11;;;;;;;28.17;12.07;;;;;;;1.72;87.79;99776.34;5035374;28;20037;-80
2021/01/31 16:22:37;;;;;;;24.20;12.70;;;;;;;1.93;87.49;99771.16;5064106;28;20086;-79
2021/01/31 16:25:04;;;;;;;23.42;12.00;;;;;;;2.02;86.84;99771.88;5050105;28;20477;-77
2021/01/31 16:27:29;;;;;;;29.02;12.95;;;;;;;2.10;86.72;99767.63;5052263;28;20378;-78
2021/01/31 16:29:55;;;;;;;25.67;12.18;;;;;;;2.15;86.01;99759.50;5066763;28;20043;-80
2021/01/31 16:32:21;;;;;;;31.33;14.77;;;;;;;2.22;85.71;99763.19;5052146;28;20041;-78
2021/01/31 16:34:46;;;;;;;33.65;15.75;;;;;;;2.21;85.32;99758.97;5055613;28;20035;-80
2021/01/31 16:37:12;;;;;;;36.50;16.40;;;;;;;2.18;85.98;99754.31;5063048;28;20436;-80
2021/01/31 16:39:41;;;;;;;33.08;15.63;;;;;;;2.21;85.56;99752.88;5075397;28;20032;-79
2021/01/31 16:42:07;;;;;;;35.03;15.40;;;;;;;2.09;85.95;99752.81;5051887;28;20485;-77
2021/01/31 16:44:33;;;;;;;29.85;14.32;;;;;;;2.02;86.71;99757.81;5066446;28;20555;-79
2021/01/31 16:46:58;;;;;;;30.60;14.00;;;;;;;2.01;86.00;99749.09;5073978;28;20112;-77
2021/01/31 16:49:23;;;;;;;27.80;13.38;;;;;;;1.99;87.39;99742.53;5062610;28;20036;-80
2021/01/31 16:51:49;;;;;;;25.77;12.18;;;;;;;1.95;87.40;99744.28;5068966;28;20115;-79
2021/01/31 16:54:14;;;;;;;25.58;12.57;;;;;;;1.99;87.73;99745.19;5070572;28;20020;-79
2021/01/31 16:56:40;;;;;;;26.13;13.23;;;;;;;1.70;87.23;99741.41;5065538;28;20020;-80
2021/01/31 16:59:05;;;;;;;34.78;16.23;;;;;;;1.69;88.28;99744.38;5077978;28;20024;-79
2021/01/31 17:01:36;;;;;;;30.15;15.13;;;;;;;1.78;88.72;99743.25;5071119;28;20032;-79
2021/01/31 17:04:02;;;;;;;32.67;15.63;;;;;;;1.68;88.83;99735.63;5073149;28;20036;-80
2021/01/31 17:06:29;;;;;;;28.08;13.65;;;;;;;1.59;88.96;99740.19;5059898;28;20377;-80
2021/01/31 17:08:55;;;;;;;25.23;12.48;;;;;;;1.36;89.46;99738.09;5054115;28;20571;-79
2021/01/31 17:11:21;;;;;;;28.83;13.90;;;;;;;1.63;89.85;99738.47;5058626;28;20032;-79
2021/01/31 17:13:47;;;;;;;27.15;12.60;;;;;;;1.63;89.68;99732.38;5064910;28;20166;-78
2021/01/31 17:16:13;;;;;;;27.83;13.63;;;;;;;1.70;88.85;99733.44;5031616;28;20957;-80
2021/01/31 17:18:38;;;;;;;29.13;13.70;;;;;;;1.71;89.02;99739.53;5064207;28;20098;-79
2021/01/31 17:21:05;;;;;;;27.58;12.77;;;;;;;1.59;88.64;99728.81;5043457;28;20037;-80
2021/01/31 17:23:31;;;;;;;31.05;14.07;;;;;;;1.60;89.23;99731.16;5046448;28;20033;-79
2021/01/31 17:25:56;;;;;;;29.20;13.65;;;;;;;1.27;90.77;99726.72;5041755;28;20778;-80
2021/01/31 17:28:23;;;;;;;44.88;19.48;;;;;;;1.38;90.76;99723.44;5046852;28;20032;-79
2021/01/31 17:30:49;;;;;;;51.72;21.33;;;;;;;1.28;91.04;99729.06;5051875;28;20028;-79
2021/01/31 17:33:15;;;;;;;45.80;19.23;;;;;;;1.50;90.38;99731.50;5071844;28;20038;-79
2021/01/31 17:35:40;;;;;;;61.63;21.85;;;;;;;1.01;91.54;99729.44;5050991;28;20041;-79
2021/01/31 17:38:06;;;;;;;155.40;55.33;;;;;;;1.29;91.96;99730.63;5053500;28;20032;-79
2021/01/31 17:40:31;;;;;;;125.80;45.35;;;;;;;1.51;89.82;99727.75;5047352;28;20024;-79
2021/01/31 17:43:00;;;;;;;66.70;24.30;;;;;;;1.46;90.00;99730.59;5051967;28;20032;-79
2021/01/31 17:45:28;;;;;;;63.53;23.25;;;;;;;1.53;90.30;99714.94;5065953;28;20036;-79
2021/01/31 17:47:54;;;;;;;65.65;24.60;;;;;;;1.68;89.11;99711.75;5053518;28;20116;-78
2021/01/31 17:50:22;;;;;;;56.75;21.20;;;;;;;1.72;88.34;99711.94;5040932;28;20064;-77
2021/01/31 17:52:48;;;;;;;54.58;21.95;;;;;;;1.76;88.24;99716.25;5054476;28;20082;-78
2021/01/31 17:55:16;;;;;;;32.25;16.13;;;;;;;1.66;88.09;99716.63;5040146;28;20032;-78
2021/01/31 17:57:42;;;;;;;34.47;13.88;;;;;;;1.43;88.77;99715.28;5071306;28;20382;-79
2021/01/31 18:00:10;;;;;;;35.85;18.23;;;;;;;1.20;90.14;99721.16;5050625;28;20115;-78
2021/01/31 18:02:39;;;;;;;32.92;14.38;;;;;;;1.33;91.24;99726.25;5063692;28;20196;-79
2021/01/31 18:05:05;;;;;;;31.50;13.73;;;;;;;1.22;91.72;99713.66;5061456;28;20036;-78
2021/01/31 18:07:31;;;;;;;31.63;14.88;;;;;;;0.86;92.65;99706.84;5061904;28;20503;-78
2021/01/31 18:09:56;;;;;;;27.30;13.70;;;;;;;1.22;92.88;99714.41;5046572;28;20029;-78
2021/01/31 18:12:21;;;;;;;35.80;16.63;;;;;;;1.09;93.05;99714.59;5043124;28;20443;-79
2021/01/31 18:14:47;;;;;;;43.67;19.60;;;;;;;1.17;93.14;99716.47;5064647;28;20324;-80
2021/01/31 18:17:12;;;;;;;81.57;32.55;;;;;;;1.10;92.33;99716.97;5069298;28;20077;-79
2021/01/31 18:19:39;;;;;;;66.47;25.63;;;;;;;1.20;92.03;99705.25;5069091;28;20155;-77
2021/01/31 18:22:05;;;;;;;57.22;29.70;;;;;;;1.09;93.43;99707.44;5066630;28;20067;-81
2021/01/31 18:24:30;;;;;;;40.50;20.65;;;;;;;1.29;91.94;99709.44;5033272;28;20032;-78
2021/01/31 18:26:56;;;;;;;39.58;19.05;;;;;;;1.37;91.50;99705.97;5056628;28;20060;-79
2021/01/31 18:29:22;;;;;;;40.33;17.75;;;;;;;1.28;91.14;99713.16;5038672;28;20412;-79
2021/01/31 18:31:47;;;;;;;36.20;15.77;;;;;;;1.24;91.43;99712.22;5039641;28;20055;-80
2021/01/31 18:34:13;;;;;;;37.58;16.80;;;;;;;1.45;90.40;99701.72;5036162;28;20039;-80
2021/01/31 18:36:39;;;;;;;35.22;16.05;;;;;;;1.26;90.78;99703.97;5043330;28;21039;-80
2021/01/31 18:39:06;;;;;;;34.17;15.98;;;;;;;1.17;91.74;99711.94;5070780;28;20036;-81
2021/01/31 18:41:31;;;;;;;34.28;15.50;;;;;;;0.84;91.47;99713.56;5037603;28;20100;-81
2021/01/31 18:43:57;;;;;;;36.65;16.33;;;;;;;0.93;92.21;99711.66;5028938;28;20123;-81
2021/01/31 18:46:23;;;;;;;30.85;15.38;;;;;;;1.19;91.29;99719.56;5055298;28;20484;-81
2021/01/31 18:48:48;;;;;;;36.55;16.65;;;;;;;1.27;90.60;99713.47;5050485;28;20036;-79
2021/01/31 18:51:14;;;;;;;40.25;18.40;;;;;;;1.21;90.29;99715.53;5037532;28;20428;-80
2021/01/31 18:53:41;;;;;;;37.65;17.80;;;;;;;1.16;90.48;99713.03;5055355;28;20476;-81
2021/01/31 18:56:08;;;;;;;52.45;24.75;;;;;;;1.06;90.24;99710.72;5053578;28;20090;-80
2021/01/31 18:58:34;;;;;;;41.60;20.15;;;;;;;0.95;90.71;99708.72;5064066;28;20094;-80